Time;durP1;ratioP1;P1;durP2;ratioP2;P2;SDS_P1;SDS_P2;PMS_P1;PMS_P2;Temp;Humidity;BMP_temperature;BMP_pressure;BME280_temperature;BME280_humidity;BME280_pressure;Samples;Min_cycle;Max_cycle;Signal;HPM_P1;HPM_P2
2022/07/29 00:00:36;;;;;;;;;;;;;;;21.40;50.26;101490.06;1028627;28;574;-74
2022/07/29 00:01:26;;;;;;;;;;;;;;;21.38;50.20;101478.50;1028778;28;678;-74
2022/07/29 00:02:16;;;;;;;;;;;;;;;21.39;50.21;101486.50;1028556;28;1597;-74
2022/07/29 00:03:07;;;;;;;;;;;;;;;21.40;50.29;101490.06;1028686;28;630;-74
2022/07/29 00:03:57;;;;;;;;;;;;;;;21.37;50.22;101485.78;1028826;28;709;-74
2022/07/29 00:04:48;;;;;;;;;;;;;;;21.36;50.15;101484.09;1028780;28;658;-74
2022/07/29 00:05:38;;;;;;;;;;;;;;;21.37;50.29;101476.81;1028835;28;674;-74
2022/07/29 00:06:28;;;;;;;;;;;;;;;21.34;50.68;101483.38;1028339;28;634;-74
2022/07/29 00:07:19;;;;;;;;;;;;;;;21.35;50.33;101476.94;1028603;28;666;-74
2022/07/29 00:08:09;;;;;;;;;;;;;;;21.35;50.33;101478.81;1029371;28;668;-74
2022/07/29 00:09:00;;;;;;;;;;;;;;;21.35;50.23;101481.53;1033091;28;661;-74
2022/07/29 00:09:50;;;;;;;;;;;;;;;21.34;50.33;101479.81;1032586;28;673;-74
2022/07/29 00:10:41;;;;;;;;;;;;;;;21.34;50.36;101474.41;1028820;28;674;-74
2022/07/29 00:11:31;;;;;;;;;;;;;;;21.34;50.46;101485.25;1029186;28;626;-74
2022/07/29 00:12:21;;;;;;;;;;;;;;;21.33;50.38;101480.81;1029239;28;644;-74
2022/07/29 00:13:12;;;;;;;;;;;;;;;21.32;50.36;101476.41;1029211;28;693;-74
2022/07/29 00:14:02;;;;;;;;;;;;;;;21.34;50.46;101479.81;1029279;28;666;-74
2022/07/29 00:14:53;;;;;;;;;;;;;;;21.31;50.22;101481.00;1031192;28;638;-74
2022/07/29 00:15:43;;;;;;;;;;;;;;;21.32;50.19;101476.41;1034824;28;642;-74
2022/07/29 00:16:33;;;;;;;;;;;;;;;21.31;50.29;101480.16;1035051;28;638;-74
2022/07/29 00:17:24;;;;;;;;;;;;;;;21.28;50.33;101475.03;1028354;28;622;-74
2022/07/29 00:18:14;;;;;;;;;;;;;;;21.27;50.33;101474.19;1029271;28;642;-73
2022/07/29 00:19:05;;;;;;;;;;;;;;;21.26;50.49;101471.63;1029233;28;709;-74
2022/07/29 00:19:55;;;;;;;;;;;;;;;21.26;50.52;101472.47;1029270;28;721;-74
2022/07/29 00:20:46;;;;;;;;;;;;;;;21.28;50.50;101472.31;1028782;28;658;-74
2022/07/29 00:21:36;;;;;;;;;;;;;;;21.26;50.21;101477.91;1025848;28;685;-74
2022/07/29 00:22:26;;;;;;;;;;;;;;;21.27;50.39;101470.63;1025176;28;713;-74
2022/07/29 00:23:17;;;;;;;;;;;;;;;21.26;50.27;101467.06;1029057;28;1564;-74
2022/07/29 00:24:07;;;;;;;;;;;;;;;21.26;50.47;101467.06;1029185;28;661;-73
2022/07/29 00:24:58;;;;;;;;;;;;;;;21.26;50.35;101460.78;1028751;28;689;-75
2022/07/29 00:25:48;;;;;;;;;;;;;;;21.25;50.53;101459.91;1028779;28;670;-74
2022/07/29 00:26:38;;;;;;;;;;;;;;;21.28;50.63;101453.34;1028755;28;709;-74
2022/07/29 00:27:29;;;;;;;;;;;;;;;21.27;50.70;101457.91;1028636;28;636;-74
2022/07/29 00:28:19;;;;;;;;;;;;;;;21.25;50.66;101459.06;1027617;28;717;-74
2022/07/29 00:29:10;;;;;;;;;;;;;;;21.27;50.59;101457.91;1028658;28;697;-73
2022/07/29 00:30:00;;;;;;;;;;;;;;;21.29;50.92;101461.31;1028731;28;729;-74
2022/07/29 00:30:51;;;;;;;;;;;;;;;21.31;50.56;101461.19;1032917;28;901;-73
2022/07/29 00:31:41;;;;;;;;;;;;;;;21.31;50.88;101458.47;1028941;28;685;-73
2022/07/29 00:32:31;;;;;;;;;;;;;;;21.33;50.68;101456.41;1024223;29;698;-73
2022/07/29 00:33:23;;;;;;;;;;;;;;;21.31;50.64;101459.31;1028333;28;673;-73
2022/07/29 00:36:32;;;;;;;;;;;;;;;21.29;50.62;101446.91;1024567;29;751;-73
2022/07/29 00:37:22;;;;;;;;;;;;;;;21.30;50.77;101445.91;1025123;28;689;-73
2022/07/29 00:38:13;;;;;;;;;;;;;;;21.29;50.53;101446.91;1025189;28;658;-73
2022/07/29 00:39:03;;;;;;;;;;;;;;;21.29;50.80;101444.22;1025287;28;740;-73
2022/07/29 00:39:54;;;;;;;;;;;;;;;21.31;50.90;101451.19;1024769;29;678;-73
2022/07/29 00:40:44;;;;;;;;;;;;;;;21.29;51.16;101445.06;1025166;28;705;-73
2022/07/29 00:41:34;;;;;;;;;;;;;;;21.29;50.97;101444.22;1025735;28;646;-73
2022/07/29 00:42:25;;;;;;;;;;;;;;;21.27;51.10;101446.22;1025127;28;721;-73
2022/07/29 00:43:15;;;;;;;;;;;;;;;21.25;50.92;101448.22;1024947;28;625;-74
2022/07/29 00:44:06;;;;;;;;;;;;;;;21.24;50.88;101441.09;1028902;28;618;-74
2022/07/29 00:44:56;;;;;;;;;;;;;;;21.20;51.45;101445.13;1032365;28;650;-73
2022/07/29 00:45:47;;;;;;;;;;;;;;;21.22;51.23;101438.53;1032879;28;792;-73
2022/07/29 00:46:37;;;;;;;;;;;;;;;21.24;51.05;101446.50;1024766;28;689;-73
2022/07/29 00:47:27;;;;;;;;;;;;;;;21.26;50.94;101444.50;1025146;28;630;-73
2022/07/29 00:48:18;;;;;;;;;;;;;;;21.27;51.06;101446.22;1025173;28;673;-73
2022/07/29 00:49:08;;;;;;;;;;;;;;;21.26;50.93;101442.66;1025144;28;712;-73
2022/07/29 00:49:59;;;;;;;;;;;;;;;21.28;50.79;101440.63;1024781;28;622;-73
2022/07/29 00:50:49;;;;;;;;;;;;;;;21.27;50.66;101438.09;1025116;28;654;-73
2022/07/29 00:51:39;;;;;;;;;;;;;;;21.25;50.89;101431.97;1025179;28;668;-73
2022/07/29 00:52:30;;;;;;;;;;;;;;;21.21;51.01;101442.25;1023473;29;694;-73
2022/07/29 00:53:20;;;;;;;;;;;;;;;21.19;50.91;101433.38;1025062;28;696;-73
2022/07/29 00:54:11;;;;;;;;;;;;;;;21.16;51.25;101433.69;1025187;28;649;-73
2022/07/29 00:55:01;;;;;;;;;;;;;;;21.17;51.20;101439.97;1025093;28;815;-73
2022/07/29 00:55:52;;;;;;;;;;;;;;;21.18;50.98;101433.53;1025140;28;637;-74
2022/07/29 00:56:42;;;;;;;;;;;;;;;21.20;51.25;101428.84;1025138;28;619;-72
2022/07/29 00:57:32;;;;;;;;;;;;;;;21.21;51.00;101435.97;1025032;28;662;-72
2022/07/29 00:58:23;;;;;;;;;;;;;;;21.20;50.98;101427.00;1025063;28;626;-74
2022/07/29 00:59:13;;;;;;;;;;;;;;;21.20;50.86;101434.28;1028556;28;712;-73
2022/07/29 01:00:04;;;;;;;;;;;;;;;21.20;50.95;101436.97;1029163;28;671;-73
2022/07/29 01:00:54;;;;;;;;;;;;;;;21.19;51.00;101433.38;1029779;28;685;-74
2022/07/29 01:01:45;;;;;;;;;;;;;;;21.19;51.32;101433.38;1025710;28;681;-74
2022/07/29 01:02:35;;;;;;;;;;;;;;;21.18;51.19;101430.81;1025118;28;725;-74
2022/07/29 01:03:26;;;;;;;;;;;;;;;21.14;51.25;101436.53;1025511;28;681;-74
2022/07/29 01:04:16;;;;;;;;;;;;;;;21.17;51.17;101429.13;1024634;28;1910;-73
2022/07/29 01:05:07;;;;;;;;;;;;;;;21.17;51.38;101429.13;1024728;29;657;-73
2022/07/29 01:05:57;;;;;;;;;;;;;;;21.15;51.21;101424.69;1026004;28;729;-74
2022/07/29 01:06:48;;;;;;;;;;;;;;;21.17;51.24;101429.13;1025180;28;670;-73
2022/07/29 01:07:38;;;;;;;;;;;;;;;21.15;51.23;101424.69;1025216;28;779;-73
2022/07/29 01:08:28;;;;;;;;;;;;;;;21.14;51.14;101431.13;1026112;28;812;-73
2022/07/29 01:09:19;;;;;;;;;;;;;;;21.14;51.38;101431.13;1025123;28;631;-73
2022/07/29 01:10:09;;;;;;;;;;;;;;;21.12;51.10;101427.75;1026297;28;674;-74
2022/07/29 01:11:00;;;;;;;;;;;;;;;21.15;51.45;101437.41;1025598;28;742;-74
2022/07/29 01:11:50;;;;;;;;;;;;;;;21.14;51.31;101427.56;1025082;28;685;-73
2022/07/29 01:12:41;;;;;;;;;;;;;;;21.12;51.34;101427.75;1026949;28;1653;-74
2022/07/29 01:13:31;;;;;;;;;;;;;;;21.12;51.46;101443.16;1029109;28;705;-74
2022/07/29 01:14:22;;;;;;;;;;;;;;;21.12;51.29;101430.47;1029263;28;622;-73
2022/07/29 01:15:12;;;;;;;;;;;;;;;21.11;51.44;101430.59;1028511;28;614;-74
2022/07/29 01:16:02;;;;;;;;;;;;;;;21.10;51.55;101427.03;1029088;28;698;-74
2022/07/29 01:16:53;;;;;;;;;;;;;;;21.09;51.57;101428.03;1029102;28;678;-74
2022/07/29 01:17:43;;;;;;;;;;;;;;;21.09;51.24;101421.78;1029013;28;700;-74
2022/07/29 01:18:34;;;;;;;;;;;;;;;21.07;51.59;101432.75;1028962;28;638;-74
2022/07/29 01:19:24;;;;;;;;;;;;;;;21.08;51.57;101426.34;1028856;28;1593;-74
2022/07/29 01:20:15;;;;;;;;;;;;;;;21.08;51.56;101429.06;1025024;28;606;-74
2022/07/29 01:21:05;;;;;;;;;;;;;;;21.08;51.78;101426.34;1025109;28;665;-72
2022/07/29 01:21:55;;;;;;;;;;;;;;;21.08;51.63;101422.78;1028736;28;720;-74
2022/07/29 01:22:46;;;;;;;;;;;;;;;21.09;51.62;101427.19;1026990;28;630;-73
2022/07/29 01:23:36;;;;;;;;;;;;;;;21.06;51.58;101422.06;1025185;28;724;-74
2022/07/29 01:24:27;;;;;;;;;;;;;;;21.05;51.67;101425.78;1024896;28;1903;-74
2022/07/29 01:25:18;;;;;;;;;;;;;;;21.04;51.92;101422.22;1025037;28;599;-72
2022/07/29 01:26:08;;;;;;;;;;;;;;;21.06;51.82;101425.63;1025128;28;630;-73
2022/07/29 01:26:59;;;;;;;;;;;;;;;21.06;51.79;101425.63;1025175;28;618;-73
2022/07/29 01:27:49;;;;;;;;;;;;;;;21.07;51.77;101429.19;1025035;28;712;-73
2022/07/29 01:28:40;;;;;;;;;;;;;;;21.06;52.03;101422.94;1024955;28;700;-73
2022/07/29 01:29:30;;;;;;;;;;;;;;;21.07;51.90;101426.50;1023865;28;1649;-73
2022/07/29 01:30:21;;;;;;;;;;;;;;;21.07;51.78;101429.19;1028574;28;669;-73
2022/07/29 01:31:11;;;;;;;;;;;;;;;21.07;51.87;101419.22;1029094;28;646;-73
2022/07/29 01:32:01;;;;;;;;;;;;;;;21.06;52.12;101422.94;1027633;28;682;-72
2022/07/29 01:32:52;;;;;;;;;;;;;;;21.05;51.73;101414.94;1028317;28;724;-73
2022/07/29 01:33:48;;;;;;;;;;;;;;;21.06;52.00;101422.06;1028468;28;614;-72
2022/07/29 01:34:39;;;;;;;;;;;;;;;21.05;51.71;101414.94;1028316;28;750;-74
2022/07/29 01:35:29;;;;;;;;;;;;;;;21.03;51.77;101419.66;1028435;28;646;-74
2022/07/29 01:36:20;;;;;;;;;;;;;;;21.03;52.08;101412.38;1032734;28;653;-73
2022/07/29 01:37:10;;;;;;;;;;;;;;;21.02;52.23;101418.81;1032202;28;697;-74
2022/07/29 01:38:01;;;;;;;;;;;;;;;21.02;51.95;101421.53;1028720;28;583;-74
2022/07/29 01:38:51;;;;;;;;;;;;;;;21.02;51.78;101421.53;1028490;28;927;-74
2022/07/29 01:39:42;;;;;;;;;;;;;;;21.03;52.03;101425.09;1028828;28;1712;-73
2022/07/29 01:40:32;;;;;;;;;;;;;;;21.00;51.96;101423.53;1029019;28;677;-73
2022/07/29 01:41:23;;;;;;;;;;;;;;;21.00;52.15;101423.53;1029004;28;650;-73
2022/07/29 01:42:13;;;;;;;;;;;;;;;21.01;51.94;101425.25;1029048;28;622;-73
2022/07/29 01:43:04;;;;;;;;;;;;;;;21.02;52.00;101420.66;1029078;28;661;-73
2022/07/29 01:43:54;;;;;;;;;;;;;;;21.01;52.15;101425.25;1028400;28;701;-73
2022/07/29 01:44:44;;;;;;;;;;;;;;;20.99;52.03;101426.38;1029001;28;1902;-73
2022/07/29 01:45:35;;;;;;;;;;;;;;;20.98;52.29;101430.09;1028674;28;701;-73
2022/07/29 01:46:25;;;;;;;;;;;;;;;20.98;51.97;101425.53;1028758;28;698;-73
2022/07/29 01:47:16;;;;;;;;;;;;;;;20.97;52.10;101429.25;1028662;28;732;-73
2022/07/29 01:48:06;;;;;;;;;;;;;;;20.97;52.02;101422.97;1029246;28;1580;-72
2022/07/29 01:48:57;;;;;;;;;;;;;;;20.98;52.29;101422.81;1029508;28;638;-71
2022/07/29 01:49:47;;;;;;;;;;;;;;;20.99;52.40;101426.38;1028452;28;662;-73
2022/07/29 01:50:37;;;;;;;;;;;;;;;20.97;52.38;101423.84;1028489;28;732;-73
2022/07/29 01:51:28;;;;;;;;;;;;;;;20.97;52.02;101426.53;1028399;28;741;-72
2022/07/29 01:52:19;;;;;;;;;;;;;;;20.98;52.28;101425.53;1028529;28;697;-72
2022/07/29 01:53:09;;;;;;;;;;;;;;;20.96;52.38;101421.31;1028340;28;638;-73
2022/07/29 01:53:59;;;;;;;;;;;;;;;20.95;52.30;101417.75;1028483;28;717;-72
2022/07/29 01:54:50;;;;;;;;;;;;;;;20.96;52.40;101422.13;1028377;28;626;-72
2022/07/29 01:55:40;;;;;;;;;;;;;;;20.96;52.05;101415.88;1029229;28;678;-73
2022/07/29 01:56:32;;;;;;;;;;;;;;;20.94;52.69;101418.75;1029141;28;685;-74
2022/07/29 01:57:22;;;;;;;;;;;;;;;20.93;52.19;101416.19;1029851;28;678;-74
2022/07/29 01:58:13;;;;;;;;;;;;;;;20.92;52.33;101415.34;1028984;28;1617;-73
2022/07/29 01:59:03;;;;;;;;;;;;;;;20.88;52.55;101411.22;1030007;28;1177;-73
2022/07/29 01:59:54;;;;;;;;;;;;;;;20.89;52.27;101412.91;1029194;28;662;-72
2022/07/29 02:00:44;;;;;;;;;;;;;;;20.89;52.47;101409.34;1029191;28;652;-73
2022/07/29 02:01:35;;;;;;;;;;;;;;;20.89;52.53;101421.06;1029360;28;658;-73
2022/07/29 02:02:25;;;;;;;;;;;;;;;20.91;52.34;101413.63;1032452;28;594;-73
2022/07/29 02:03:16;;;;;;;;;;;;;;;20.93;52.58;101411.63;1033489;28;688;-73
2022/07/29 02:04:06;;;;;;;;;;;;;;;20.91;52.60;101418.19;1029378;28;665;-73
2022/07/29 02:04:57;;;;;;;;;;;;;;;20.91;52.73;101413.63;1029153;28;800;-73
2022/07/29 02:05:47;;;;;;;;;;;;;;;20.91;52.63;101413.63;1033017;28;693;-73
2022/07/29 02:06:38;;;;;;;;;;;;;;;20.90;52.60;101411.06;1033432;28;697;-73
2022/07/29 02:07:28;;;;;;;;;;;;;;;20.89;52.67;101412.91;1029384;28;595;-74
2022/07/29 02:08:19;;;;;;;;;;;;;;;20.90;52.65;101411.06;1028905;28;1700;-72
2022/07/29 02:09:10;;;;;;;;;;;;;;;20.89;52.37;101415.63;1029287;28;644;-72
2022/07/29 02:10:00;;;;;;;;;;;;;;;20.86;52.79;101417.78;1029154;28;673;-72
2022/07/29 02:10:50;;;;;;;;;;;;;;;20.85;52.81;101414.22;1029738;28;718;-72
2022/07/29 02:11:41;;;;;;;;;;;;;;;20.87;52.77;101422.19;1029097;28;622;-73
2022/07/29 02:12:31;;;;;;;;;;;;;;;20.88;52.69;101408.50;1029238;28;614;-73
2022/07/29 02:13:22;;;;;;;;;;;;;;;20.85;52.68;101414.22;1033491;28;639;-73
2022/07/29 02:14:12;;;;;;;;;;;;;;;20.84;52.77;101409.81;1032888;28;742;-73
2022/07/29 02:15:03;;;;;;;;;;;;;;;20.86;52.57;101412.38;1029393;28;656;-73
2022/07/29 02:15:53;;;;;;;;;;;;;;;20.85;52.56;101411.50;1029188;28;689;-74
2022/07/29 02:16:43;;;;;;;;;;;;;;;20.84;52.63;101417.94;1028490;28;1495;-73
2022/07/29 02:17:34;;;;;;;;;;;;;;;20.86;52.71;101415.94;1029728;28;689;-74
2022/07/29 02:18:24;;;;;;;;;;;;;;;20.86;52.88;101415.94;1029655;28;607;-73
2022/07/29 02:19:15;;;;;;;;;;;;;;;20.87;52.82;101419.50;1029727;28;665;-73
2022/07/29 02:20:05;;;;;;;;;;;;;;;20.86;52.84;101413.22;1029367;28;611;-73
2022/07/29 02:20:56;;;;;;;;;;;;;;;20.84;52.78;101417.09;1029398;28;633;-73
2022/07/29 02:21:46;;;;;;;;;;;;;;;20.86;52.87;101410.50;1029668;28;669;-73
2022/07/29 02:22:37;;;;;;;;;;;;;;;20.87;52.64;101419.50;1029655;28;669;-73
2022/07/29 02:23:27;;;;;;;;;;;;;;;20.83;52.97;101408.09;1029416;28;689;-73
2022/07/29 02:24:17;;;;;;;;;;;;;;;20.84;52.57;101412.53;1029471;28;661;-73
2022/07/29 02:25:08;;;;;;;;;;;;;;;20.84;52.80;101411.66;1029606;28;647;-73
2022/07/29 02:25:58;;;;;;;;;;;;;;;20.82;52.99;101414.53;1029728;28;638;-74
2022/07/29 02:26:49;;;;;;;;;;;;;;;20.80;53.00;101413.81;1029463;28;1487;-73
2022/07/29 02:27:39;;;;;;;;;;;;;;;20.83;52.87;101415.38;1029640;28;653;-73
2022/07/29 02:28:30;;;;;;;;;;;;;;;20.83;52.84;101407.25;1029548;28;1570;-73
2022/07/29 02:29:20;;;;;;;;;;;;;;;20.82;52.92;101413.66;1029816;28;658;-73
2022/07/29 02:30:12;;;;;;;;;;;;;;;20.83;52.83;101409.97;1029721;28;650;-73
2022/07/29 02:31:02;;;;;;;;;;;;;;;20.81;52.78;101407.41;1029614;28;615;-73
2022/07/29 02:31:53;;;;;;;;;;;;;;;20.80;53.12;101408.41;1029677;28;749;-73
2022/07/29 02:32:43;;;;;;;;;;;;;;;20.80;52.78;101411.09;1029740;28;619;-73
2022/07/29 02:33:33;;;;;;;;;;;;;;;20.78;53.43;101423.97;1029656;28;1173;-74
2022/07/29 02:34:24;;;;;;;;;;;;;;;20.78;53.00;101418.56;1029690;28;614;-74
2022/07/29 02:35:14;;;;;;;;;;;;;;;20.78;52.62;101413.16;1029540;28;669;-73
2022/07/29 02:36:05;;;;;;;;;;;;;;;20.77;53.09;101411.44;1029638;28;642;-73
2022/07/29 02:36:55;;;;;;;;;;;;;;;20.79;52.89;101420.25;1029703;28;669;-73
2022/07/29 02:38:49;;;;;;;;;;;;;;;20.77;53.06;101412.28;1029614;28;680;-74
2022/07/29 02:38:57;;;;;;;;;;;;;;;20.77;53.21;101408.72;1027720;28;1553;-73
2022/07/29 02:39:47;;;;;;;;;;;;;;;20.77;52.89;101406.88;1029129;28;716;-73
2022/07/29 02:40:38;;;;;;;;;;;;;;;20.76;53.35;101401.59;1029565;28;634;-73
2022/07/29 02:41:29;;;;;;;;;;;;;;;20.77;53.27;101414.16;1029096;28;638;-73
2022/07/29 02:42:19;;;;;;;;;;;;;;;20.73;52.92;101400.06;1029620;28;617;-72
2022/07/29 02:43:10;;;;;;;;;;;;;;;20.76;53.14;101407.88;1029591;28;642;-73
2022/07/29 02:44:00;;;;;;;;;;;;;;;20.74;53.11;101401.75;1029608;28;618;-72
2022/07/29 02:44:51;;;;;;;;;;;;;;;20.75;53.37;101398.03;1029483;28;1969;-72
2022/07/29 02:45:41;;;;;;;;;;;;;;;20.75;53.56;101399.91;1029076;28;712;-72
2022/07/29 02:46:32;;;;;;;;;;;;;;;20.72;53.63;101403.75;1028971;28;1676;-73
2022/07/29 02:47:22;;;;;;;;;;;;;;;20.76;52.87;101398.91;1029044;28;615;-72
2022/07/29 02:48:13;;;;;;;;;;;;;;;20.73;53.36;101396.50;1029069;28;701;-72
2022/07/29 02:49:03;;;;;;;;;;;;;;;20.73;53.27;101404.63;1029016;28;630;-72
2022/07/29 02:49:53;;;;;;;;;;;;;;;20.71;53.24;101396.63;1029555;28;733;-73
2022/07/29 02:50:44;;;;;;;;;;;;;;;20.74;53.11;101400.91;1029009;28;696;-73
2022/07/29 02:51:34;;;;;;;;;;;;;;;20.76;53.48;101407.88;1029043;28;625;-73
2022/07/29 02:52:25;;;;;;;;;;;;;;;20.74;53.44;101398.19;1029189;28;715;-72
2022/07/29 02:53:16;;;;;;;;;;;;;;;20.75;53.30;101398.03;1028990;28;617;-73
2022/07/29 02:54:06;;;;;;;;;;;;;;;20.74;52.99;101398.19;1028980;28;626;-73
2022/07/29 02:54:57;;;;;;;;;;;;;;;20.75;53.05;101402.59;1029604;28;725;-73
2022/07/29 02:55:47;;;;;;;;;;;;;;;20.74;53.29;101400.91;1029056;28;541;-73
2022/07/29 02:56:37;;;;;;;;;;;;;;;20.75;52.91;101408.03;1028992;28;1543;-73
2022/07/29 02:57:28;;;;;;;;;;;;;;;20.73;53.10;101415.44;1029603;28;646;-74
2022/07/29 02:58:18;;;;;;;;;;;;;;;20.73;53.19;101404.63;1029478;28;665;-73
2022/07/29 02:59:09;;;;;;;;;;;;;;;20.73;53.36;101402.75;1030036;28;670;-73
2022/07/29 02:59:59;;;;;;;;;;;;;;;20.74;53.04;101406.31;1028966;28;634;-73
2022/07/29 03:00:50;;;;;;;;;;;;;;;20.71;53.67;101401.19;1029029;28;642;-73
2022/07/29 03:01:40;;;;;;;;;;;;;;;20.71;53.26;101393.94;1028948;28;676;-73
2022/07/29 03:02:30;;;;;;;;;;;;;;;20.72;53.56;101402.91;1032730;28;733;-73
2022/07/29 03:03:21;;;;;;;;;;;;;;;20.70;53.27;101396.78;1033260;28;685;-73
2022/07/29 03:04:11;;;;;;;;;;;;;;;20.68;53.29;101396.09;1029203;28;642;-73
2022/07/29 03:05:02;;;;;;;;;;;;;;;20.68;53.46;101407.78;1028778;28;1724;-73
2022/07/29 03:05:52;;;;;;;;;;;;;;;20.70;53.45;101399.50;1029458;28;728;-73
2022/07/29 03:06:43;;;;;;;;;;;;;;;20.68;53.53;101402.34;1028952;28;631;-73
2022/07/29 03:07:33;;;;;;;;;;;;;;;20.69;53.38;101403.22;1028986;28;880;-73
2022/07/29 03:08:23;;;;;;;;;;;;;;;20.68;52.97;101402.34;1028926;28;690;-73
2022/07/29 03:09:14;;;;;;;;;;;;;;;20.68;53.04;101401.50;1028874;28;685;-73
2022/07/29 03:10:04;;;;;;;;;;;;;;;20.69;52.83;101395.06;1029019;28;653;-73
2022/07/29 03:10:55;;;;;;;;;;;;;;;20.70;53.07;101400.34;1027970;28;658;-73
2022/07/29 03:11:45;;;;;;;;;;;;;;;20.70;52.99;101400.34;1029501;28;626;-73
2022/07/29 03:12:36;;;;;;;;;;;;;;;20.68;53.03;101404.22;1029483;28;621;-73
2022/07/29 03:13:26;;;;;;;;;;;;;;;20.66;53.16;101398.94;1028921;28;666;-74
2022/07/29 03:14:16;;;;;;;;;;;;;;;20.67;53.04;101400.66;1028997;28;640;-74
2022/07/29 03:15:08;;;;;;;;;;;;;;;20.68;53.60;101394.22;1029015;28;1354;-74
2022/07/29 03:15:58;;;;;;;;;;;;;;;20.69;53.59;101395.94;1029514;28;697;-74
2022/07/29 03:16:48;;;;;;;;;;;;;;;20.68;53.44;101396.09;1029606;28;665;-74
2022/07/29 03:17:39;;;;;;;;;;;;;;;20.69;53.26;101390.50;1029923;28;807;-72
2022/07/29 03:18:29;;;;;;;;;;;;;;;20.69;52.96;101386.94;1029616;28;634;-73
2022/07/29 03:19:20;;;;;;;;;;;;;;;20.70;53.14;101388.66;1029485;28;626;-73
2022/07/29 03:20:10;;;;;;;;;;;;;;;20.69;53.44;101395.94;1029451;28;682;-73
2022/07/29 03:21:01;;;;;;;;;;;;;;;20.66;53.21;101381.84;1027822;28;642;-73
2022/07/29 03:21:51;;;;;;;;;;;;;;;20.64;53.62;101397.38;1029439;28;642;-73
2022/07/29 03:22:46;;;;;;;;;;;;;;;20.64;53.50;101378.44;1029032;28;650;-73
2022/07/29 03:23:37;;;;;;;;;;;;;;;20.64;53.05;101383.84;1029069;28;689;-72
2022/07/29 03:24:27;;;;;;;;;;;;;;;20.61;53.24;101384.13;1029157;28;1965;-73
2022/07/29 03:25:18;;;;;;;;;;;;;;;20.59;53.05;101380.75;1028850;28;665;-73
2022/07/29 03:26:08;;;;;;;;;;;;;;;20.60;53.32;101382.47;1028798;28;674;-73
2022/07/29 03:26:58;;;;;;;;;;;;;;;20.62;53.44;101385.84;1028943;28;673;-73
2022/07/29 03:27:49;;;;;;;;;;;;;;;20.61;53.47;101384.13;1028871;28;772;-73
2022/07/29 03:28:39;;;;;;;;;;;;;;;20.62;53.34;101380.44;1028938;28;634;-73
2022/07/29 03:29:30;;;;;;;;;;;;;;;20.62;53.34;101377.72;1029026;28;708;-74
2022/07/29 03:30:20;;;;;;;;;;;;;;;20.64;53.44;101383.84;1028975;28;624;-73
2022/07/29 03:31:11;;;;;;;;;;;;;;;20.65;52.89;101380.13;1028927;28;634;-73
2022/07/29 03:32:02;;;;;;;;;;;;;;;20.66;52.87;101382.69;1028868;28;537;-73
2022/07/29 03:32:52;;;;;;;;;;;;;;;20.66;53.23;101379.13;1028844;28;686;-73
2022/07/29 03:33:43;;;;;;;;;;;;;;;20.64;53.15;101375.72;1028929;28;697;-73
2022/07/29 03:34:33;;;;;;;;;;;;;;;20.62;53.23;101377.72;1028649;28;1593;-74
2022/07/29 03:35:24;;;;;;;;;;;;;;;20.62;53.04;101378.56;1029495;28;669;-74
2022/07/29 03:36:14;;;;;;;;;;;;;;;20.64;53.24;101376.56;1029400;28;647;-74
2022/07/29 03:37:05;;;;;;;;;;;;;;;20.66;53.14;101376.41;1029115;28;661;-73
2022/07/29 03:37:56;;;;;;;;;;;;;;;20.63;53.30;101382.13;1029087;28;622;-73
2022/07/29 03:38:46;;;;;;;;;;;;;;;20.61;53.34;101379.56;1029398;28;685;-73
2022/07/29 03:39:37;;;;;;;;;;;;;;;20.57;53.82;101383.63;1029438;28;677;-73
2022/07/29 03:40:27;;;;;;;;;;;;;;;20.59;53.73;101375.34;1029417;28;618;-74
2022/07/29 03:41:17;;;;;;;;;;;;;;;20.62;53.37;101380.44;1029384;28;634;-73
2022/07/29 03:42:08;;;;;;;;;;;;;;;20.61;53.17;101379.56;1029367;28;658;-74
2022/07/29 03:42:58;;;;;;;;;;;;;;;20.64;53.13;101378.44;1029447;28;653;-73
2022/07/29 03:43:49;;;;;;;;;;;;;;;20.63;53.40;101374.00;1028897;28;658;-73
2022/07/29 03:44:39;;;;;;;;;;;;;;;20.62;53.12;101380.44;1025152;29;1894;-73
2022/07/29 03:45:30;;;;;;;;;;;;;;;20.60;53.26;101377.03;1025052;29;651;-73
2022/07/29 03:46:20;;;;;;;;;;;;;;;20.61;52.99;101379.56;1028054;28;1651;-74
2022/07/29 03:47:11;;;;;;;;;;;;;;;20.61;53.11;101385.00;1029352;28;724;-72
2022/07/29 03:48:01;;;;;;;;;;;;;;;20.58;53.57;101373.63;1029337;28;717;-74
2022/07/29 03:48:51;;;;;;;;;;;;;;;20.59;53.36;101370.78;1029366;28;630;-74
2022/07/29 03:49:42;;;;;;;;;;;;;;;20.60;53.11;101382.47;1029417;28;721;-72
2022/07/29 03:50:32;;;;;;;;;;;;;;;20.60;53.48;101374.34;1029424;28;619;-72
2022/07/29 03:51:23;;;;;;;;;;;;;;;20.57;53.36;101370.06;1028851;28;1285;-72
2022/07/29 03:52:13;;;;;;;;;;;;;;;20.59;53.23;101380.75;1028944;28;634;-72
2022/07/29 03:53:04;;;;;;;;;;;;;;;20.57;53.44;101372.78;1029309;28;677;-72
2022/07/29 03:53:54;;;;;;;;;;;;;;;20.60;53.63;101377.88;1029395;28;681;-72
2022/07/29 03:54:44;;;;;;;;;;;;;;;20.58;53.69;101376.34;1029375;28;677;-73
2022/07/29 03:55:35;;;;;;;;;;;;;;;20.61;53.51;101376.00;1027878;28;610;-72
2022/07/29 03:56:26;;;;;;;;;;;;;;;20.61;53.46;101367.88;1029276;28;646;-72
2022/07/29 03:57:16;;;;;;;;;;;;;;;20.58;53.35;101377.19;1027566;28;713;-72
2022/07/29 03:58:07;;;;;;;;;;;;;;;20.60;53.75;101371.63;1027802;28;882;-73
2022/07/29 03:58:58;;;;;;;;;;;;;;;20.61;52.87;101367.88;1028773;28;1205;-73
2022/07/29 03:59:48;;;;;;;;;;;;;;;20.62;53.38;101380.44;1028814;28;630;-73
2022/07/29 04:00:39;;;;;;;;;;;;;;;20.61;53.68;101371.44;1028784;28;728;-74
2022/07/29 04:01:29;;;;;;;;;;;;;;;20.61;53.23;101374.16;1028646;28;699;-74
2022/07/29 04:02:19;;;;;;;;;;;;;;;20.61;53.23;101373.31;1028663;28;670;-73
2022/07/29 04:03:10;;;;;;;;;;;;;;;20.62;53.28;101369.59;1028331;28;670;-73
2022/07/29 04:04:00;;;;;;;;;;;;;;;20.62;53.38;101375.00;1029305;28;705;-75
2022/07/29 04:04:51;;;;;;;;;;;;;;;20.58;53.45;101377.19;1029227;28;1968;-74
2022/07/29 04:05:41;;;;;;;;;;;;;;;20.60;53.65;101371.63;1029330;28;681;-74
2022/07/29 04:06:32;;;;;;;;;;;;;;;20.60;53.71;101372.44;1029309;28;716;-74
2022/07/29 04:07:22;;;;;;;;;;;;;;;20.58;53.41;101374.50;1031133;28;778;-74
2022/07/29 04:08:12;;;;;;;;;;;;;;;20.57;53.36;101374.63;1031874;28;778;-74
2022/07/29 04:09:03;;;;;;;;;;;;;;;20.54;53.60;101383.06;1028351;28;663;-74
2022/07/29 04:09:53;;;;;;;;;;;;;;;20.55;53.90;101374.78;1029248;28;618;-74
2022/07/29 04:10:44;;;;;;;;;;;;;;;20.56;53.35;101376.50;1029277;28;686;-74
2022/07/29 04:11:34;;;;;;;;;;;;;;;20.56;53.34;101381.06;1029234;28;598;-74
2022/07/29 04:12:25;;;;;;;;;;;;;;;20.56;53.18;101375.63;1029248;28;654;-75
2022/07/29 04:13:15;;;;;;;;;;;;;;;20.56;53.17;101389.19;1024577;29;720;-74
2022/07/29 04:14:05;;;;;;;;;;;;;;;20.60;53.20;101382.47;1024181;29;652;-74
2022/07/29 04:14:56;;;;;;;;;;;;;;;20.61;53.24;101378.72;1025340;28;681;-74
2022/07/29 04:15:46;;;;;;;;;;;;;;;20.58;53.32;101373.63;1025320;28;637;-74
2022/07/29 04:16:37;;;;;;;;;;;;;;;20.55;53.89;101373.94;1029531;28;686;-74
2022/07/29 04:17:27;;;;;;;;;;;;;;;20.54;53.43;101383.06;1029436;28;649;-74
2022/07/29 04:18:18;;;;;;;;;;;;;;;20.53;53.45;101378.63;1025592;28;662;-74
2022/07/29 04:19:08;;;;;;;;;;;;;;;20.50;53.38;101378.94;1025274;28;690;-74
2022/07/29 04:19:58;;;;;;;;;;;;;;;20.49;53.79;101375.38;1025231;28;701;-74
2022/07/29 04:20:49;;;;;;;;;;;;;;;20.47;53.80;101373.81;1029580;28;710;-74
2022/07/29 04:21:39;;;;;;;;;;;;;;;20.49;53.40;101379.94;1027113;28;670;-74
2022/07/29 04:22:30;;;;;;;;;;;;;;;20.51;53.21;101375.22;1025946;28;725;-74
2022/07/29 04:23:20;;;;;;;;;;;;;;;20.53;53.33;101376.78;1028845;28;803;-73
2022/07/29 04:24:10;;;;;;;;;;;;;;;20.53;53.78;101370.53;1028925;28;622;-73
2022/07/29 04:25:01;;;;;;;;;;;;;;;20.55;53.51;101365.81;1025356;28;721;-73
2022/07/29 04:25:51;;;;;;;;;;;;;;;20.56;53.95;101364.81;1025216;28;606;-73
2022/07/29 04:26:42;;;;;;;;;;;;;;;20.59;53.68;101369.94;1025306;28;721;-73
2022/07/29 04:27:32;;;;;;;;;;;;;;;20.54;53.37;101367.66;1024804;28;673;-73
2022/07/29 04:28:22;;;;;;;;;;;;;;;20.52;53.82;101366.97;1025171;28;642;-75